createdAt,value
2018-08-17T00:00:22.299Z,24.6
2018-08-17T00:01:02.800Z,24.52
2018-08-17T00:01:43.276Z,24.57
2018-08-17T00:02:23.803Z,24.58
2018-08-17T00:03:04.299Z,24.55
2018-08-17T00:03:44.908Z,24.5
2018-08-17T00:04:25.426Z,24.47
2018-08-17T00:05:05.931Z,24.58
2018-08-17T00:05:46.419Z,24.6
2018-08-17T00:06:26.893Z,24.5
2018-08-17T00:07:07.426Z,24.45
2018-08-17T00:07:47.947Z,24.46
2018-08-17T00:08:28.479Z,24.46
2018-08-17T00:09:08.983Z,24.45
2018-08-17T00:09:49.479Z,24.42
2018-08-17T00:10:30.001Z,24.42
2018-08-17T00:11:10.518Z,24.49
2018-08-17T00:11:51.043Z,24.52
2018-08-17T00:12:31.526Z,24.55
2018-08-17T00:13:12.061Z,24.49
2018-08-17T00:13:52.582Z,24.45
2018-08-17T00:14:33.120Z,24.52
2018-08-17T00:15:13.632Z,24.47
2018-08-17T00:15:54.139Z,24.49
2018-08-17T00:16:34.872Z,24.49
2018-08-17T00:17:15.328Z,24.46
2018-08-17T00:17:55.835Z,24.45
2018-08-17T00:18:36.362Z,24.46
2018-08-17T00:19:16.874Z,24.5
2018-08-17T00:19:57.430Z,24.43
2018-08-17T00:20:37.952Z,24.5
2018-08-17T00:21:18.491Z,24.47
2018-08-17T00:21:59.008Z,24.45
2018-08-17T00:22:39.525Z,24.37
2018-08-17T00:23:20.056Z,24.34
2018-08-17T00:24:00.557Z,24.37
2018-08-17T00:24:41.112Z,24.39
2018-08-17T00:26:18.977Z,24.21
2018-08-17T00:26:59.508Z,24.27
2018-08-17T00:27:40.028Z,24.35
2018-08-17T00:28:20.597Z,24.28
2018-08-17T00:29:01.068Z,24.4
2018-08-17T00:29:41.584Z,24.31
2018-08-17T00:30:22.108Z,24.31
2018-08-17T00:31:02.682Z,24.32
2018-08-17T00:31:43.150Z,24.34
2018-08-17T00:32:23.733Z,24.31
2018-08-17T00:33:04.386Z,24.3
2018-08-17T00:33:44.902Z,24.35
2018-08-17T00:34:25.547Z,24.34
2018-08-17T00:35:06.017Z,24.34
2018-08-17T00:35:46.490Z,24.43
2018-08-17T00:36:27.008Z,24.35
2018-08-17T00:37:07.533Z,24.34
2018-08-17T00:37:48.049Z,24.39
2018-08-17T00:38:28.574Z,24.4
2018-08-17T00:39:09.072Z,24.42
2018-08-17T00:39:49.530Z,24.3
2018-08-17T00:40:30.048Z,24.32
2018-08-17T00:41:10.542Z,24.37
2018-08-17T00:41:51.096Z,24.28
2018-08-17T00:42:31.556Z,24.35
2018-08-17T00:43:12.054Z,24.28
2018-08-17T00:43:52.561Z,24.28
2018-08-17T00:44:33.072Z,24.32
2018-08-17T00:45:13.583Z,24.24
2018-08-17T00:45:54.101Z,24.34
2018-08-17T00:46:34.620Z,24.31
2018-08-17T00:47:15.125Z,24.27
2018-08-17T00:47:55.592Z,24.31
2018-08-17T00:48:36.073Z,24.3
2018-08-17T00:49:16.590Z,24.3
2018-08-17T00:49:57.110Z,24.37
2018-08-17T00:50:37.634Z,24.42
2018-08-17T00:51:18.157Z,24.35
2018-08-17T00:51:58.626Z,24.32
2018-08-17T00:52:39.127Z,24.34
2018-08-17T00:53:19.704Z,24.32
2018-08-17T00:54:00.227Z,24.27
2018-08-17T00:54:40.753Z,24.32
2018-08-17T00:55:21.265Z,24.34
2018-08-17T00:56:01.806Z,24.34
2018-08-17T00:56:42.288Z,24.37
2018-08-17T00:57:22.808Z,24.34
2018-08-17T00:58:03.306Z,24.31
2018-08-17T00:58:43.866Z,24.28
2018-08-17T00:59:24.370Z,24.31
2018-08-17T01:00:04.885Z,24.28
2018-08-17T01:00:45.407Z,24.31
2018-08-17T01:01:25.920Z,24.31
2018-08-17T01:02:06.437Z,24.31
2018-08-17T01:02:46.944Z,24.25
2018-08-17T01:03:27.456Z,24.22
2018-08-17T01:04:07.958Z,24.27
2018-08-17T01:04:48.481Z,24.25
2018-08-17T01:05:29.070Z,24.3
2018-08-17T01:06:09.558Z,24.28
2018-08-17T01:06:50.075Z,24.28
2018-08-17T01:07:30.608Z,24.18
2018-08-17T01:08:11.132Z,24.22
2018-08-17T01:08:51.651Z,24.28
2018-08-17T01:09:32.181Z,24.24
2018-08-17T01:10:12.706Z,24.28
2018-08-17T01:10:53.220Z,24.31
2018-08-17T01:11:33.723Z,24.25
2018-08-17T01:12:14.230Z,24.1
2018-08-17T01:12:54.740Z,24.16
2018-08-17T01:13:35.244Z,24.06
2018-08-17T01:14:15.765Z,24.12
2018-08-17T01:14:56.284Z,24.1
2018-08-17T01:15:36.811Z,24.16
2018-08-17T01:16:17.318Z,24.06
2018-08-17T01:16:57.834Z,24.16
2018-08-17T01:17:38.330Z,24.06
2018-08-17T01:18:18.852Z,24.15
2018-08-17T01:18:59.368Z,24.25
2018-08-17T01:19:39.894Z,24.27
2018-08-17T01:20:20.416Z,24.12
2018-08-17T01:21:00.952Z,24.24
2018-08-17T01:21:41.499Z,24.24
2018-08-17T01:22:21.989Z,24.22
2018-08-17T01:23:02.509Z,24.16
2018-08-17T01:23:43.026Z,24.24
2018-08-17T01:24:23.543Z,24.15
2018-08-17T01:25:04.067Z,24.22
2018-08-17T01:25:44.591Z,24.28
2018-08-17T01:26:25.105Z,24.1
2018-08-17T01:27:05.628Z,24.12
2018-08-17T01:27:46.149Z,24.12
2018-08-17T01:28:26.664Z,24.13
2018-08-17T01:29:07.190Z,24.2
2018-08-17T01:29:47.816Z,24.13
2018-08-17T01:30:28.245Z,24.18
2018-08-17T01:31:08.755Z,24.09
2018-08-17T01:31:49.273Z,24.05
2018-08-17T01:32:29.800Z,24.08
2018-08-17T01:33:10.297Z,24.03
2018-08-17T01:33:50.809Z,23.98
2018-08-17T01:34:31.311Z,23.93
2018-08-17T01:35:11.837Z,23.83
2018-08-17T01:35:52.371Z,23.78
2018-08-17T01:36:32.878Z,23.76
2018-08-17T01:37:13.392Z,23.76
2018-08-17T01:37:53.923Z,23.83
2018-08-17T01:38:34.459Z,23.79
2018-08-17T01:39:14.965Z,23.8
2018-08-17T01:39:55.479Z,23.73
2018-08-17T01:40:36.008Z,23.7
2018-08-17T01:41:16.519Z,23.73
2018-08-17T01:41:57.029Z,23.63
2018-08-17T01:42:37.557Z,23.55
2018-08-17T01:43:18.033Z,23.68
2018-08-17T01:43:58.536Z,23.55
2018-08-17T01:44:39.024Z,23.54
2018-08-17T01:45:19.535Z,23.57
2018-08-17T01:46:00.041Z,23.63
2018-08-17T01:46:40.490Z,23.53
2018-08-17T01:47:20.983Z,23.43
2018-08-17T01:48:01.491Z,23.43
2018-08-17T01:48:42.017Z,23.42
2018-08-17T01:49:22.523Z,23.33
2018-08-17T01:50:03.049Z,23.48
2018-08-17T01:50:43.568Z,23.39
2018-08-17T01:51:24.101Z,23.35
2018-08-17T01:52:04.619Z,23.31
2018-08-17T01:52:45.180Z,23.35
2018-08-17T01:53:25.734Z,23.33
2018-08-17T01:54:06.249Z,23.31
2018-08-17T01:54:46.774Z,23.35
2018-08-17T01:55:27.300Z,23.32
2018-08-17T01:56:07.818Z,23.31
2018-08-17T01:56:48.370Z,23.23
2018-08-17T01:57:28.848Z,23.31
2018-08-17T01:58:09.352Z,23.27
2018-08-17T01:58:49.867Z,23.31
2018-08-17T01:59:30.394Z,23.33
2018-08-17T02:00:10.909Z,23.33
2018-08-17T02:00:51.435Z,23.35
2018-08-17T02:01:31.955Z,23.27
2018-08-17T02:02:12.467Z,23.27
2018-08-17T02:02:52.986Z,23.19
2018-08-17T02:03:33.510Z,23.25
2018-08-17T02:04:14.032Z,23.25
2018-08-17T02:04:54.546Z,23.19
2018-08-17T02:05:35.061Z,23.25
2018-08-17T02:06:15.580Z,23.2
2018-08-17T02:06:56.090Z,23.28
2018-08-17T02:07:36.619Z,23.33
2018-08-17T02:08:17.143Z,23.23
2018-08-17T02:08:57.679Z,23.33
2018-08-17T02:09:38.198Z,23.33
2018-08-17T02:10:18.707Z,23.27
2018-08-17T02:10:59.224Z,23.25
2018-08-17T02:11:39.755Z,23.19
2018-08-17T02:12:20.290Z,23.12
2018-08-17T02:13:00.808Z,23.1
2018-08-17T02:13:41.329Z,23.09
2018-08-17T02:14:21.850Z,23.17
2018-08-17T02:15:02.359Z,23.2
2018-08-17T02:15:42.862Z,23.23
2018-08-17T02:16:23.391Z,23.22
2018-08-17T02:17:03.910Z,23.28
2018-08-17T02:17:44.426Z,23.27
2018-08-17T02:18:24.940Z,23.27
2018-08-17T02:20:39.240Z,23.33
2018-08-17T02:21:19.741Z,23.32
2018-08-17T02:22:00.251Z,23.33
2018-08-17T02:22:40.754Z,23.28
2018-08-17T02:23:21.271Z,23.32
2018-08-17T02:24:01.779Z,23.32
2018-08-17T02:24:42.299Z,23.27
2018-08-17T02:25:22.810Z,23.31
2018-08-17T02:26:03.325Z,23.33
2018-08-17T02:26:43.835Z,23.33
2018-08-17T02:27:24.344Z,23.35
2018-08-17T02:28:04.866Z,23.35
2018-08-17T02:28:45.402Z,23.38
2018-08-17T02:29:25.922Z,23.38
2018-08-17T02:30:06.426Z,23.31
2018-08-17T02:30:46.936Z,23.27
2018-08-17T02:31:27.460Z,23.35
2018-08-17T02:32:08.003Z,23.38
2018-08-17T02:32:48.515Z,23.33
2018-08-17T02:33:29.019Z,23.33
2018-08-17T02:34:09.545Z,23.33
2018-08-17T02:34:50.049Z,23.32
2018-08-17T02:35:30.556Z,23.31
2018-08-17T02:36:11.073Z,23.27
2018-08-17T02:36:51.650Z,23.23
2018-08-17T02:37:32.109Z,23.32
2018-08-17T02:38:12.625Z,23.36
2018-08-17T02:38:53.149Z,23.36
2018-08-17T02:39:33.657Z,23.31
2018-08-17T02:40:14.189Z,23.22
2018-08-17T02:40:54.705Z,23.2
2018-08-17T02:41:35.221Z,23.2
2018-08-17T02:42:15.741Z,23.23
2018-08-17T02:42:56.261Z,23.35
2018-08-17T02:43:36.775Z,23.27
2018-08-17T02:44:17.360Z,23.35
2018-08-17T02:44:57.821Z,23.36
2018-08-17T02:45:38.340Z,23.28
2018-08-17T02:46:18.852Z,23.23
2018-08-17T02:46:59.360Z,23.23
2018-08-17T02:47:39.895Z,23.31
2018-08-17T02:48:20.418Z,23.27
2018-08-17T02:49:01.049Z,23.35
2018-08-17T02:49:41.572Z,23.35
2018-08-17T02:50:22.092Z,23.32
2018-08-17T02:51:02.607Z,23.35
2018-08-17T02:51:43.124Z,23.32
2018-08-17T02:52:23.649Z,23.25
2018-08-17T02:53:04.176Z,23.27
2018-08-17T02:53:44.697Z,23.28
2018-08-17T02:54:25.219Z,23.28
2018-08-17T02:55:05.740Z,23.27
2018-08-17T02:55:46.256Z,23.22
2018-08-17T02:56:26.768Z,23.32
2018-08-17T02:57:07.288Z,23.33
2018-08-17T02:57:47.805Z,23.22
2018-08-17T02:58:28.321Z,23.25
2018-08-17T02:59:08.839Z,23.25
2018-08-17T02:59:49.359Z,23.28
2018-08-17T03:00:29.878Z,23.23
2018-08-17T03:01:10.395Z,23.23
2018-08-17T03:01:50.898Z,23.23
2018-08-17T03:02:31.428Z,23.23
2018-08-17T03:03:11.945Z,23.27
2018-08-17T03:03:52.455Z,23.23
2018-08-17T03:04:32.987Z,23.25
2018-08-17T03:05:13.504Z,23.22
2018-08-17T03:05:54.031Z,23.22
2018-08-17T03:06:34.519Z,23.17
2018-08-17T03:07:15.050Z,23.12
2018-08-17T03:07:55.567Z,23.2
2018-08-17T03:08:36.130Z,23.2
2018-08-17T03:09:16.609Z,23.13
2018-08-17T03:09:57.142Z,23.12
2018-08-17T03:10:37.668Z,23.13
2018-08-17T03:11:18.201Z,23.01
2018-08-17T03:11:58.718Z,23.09
2018-08-17T03:12:39.252Z,22.95
2018-08-17T03:13:19.764Z,22.9
2018-08-17T03:14:00.288Z,22.97
2018-08-17T03:14:40.893Z,22.8
2018-08-17T03:15:21.409Z,22.88
2018-08-17T03:16:01.933Z,22.9
2018-08-17T03:16:42.458Z,22.97
2018-08-17T03:17:22.973Z,23.02
2018-08-17T03:18:03.489Z,22.97
2018-08-17T03:18:44.010Z,23.1
2018-08-17T03:19:24.530Z,23.1
2018-08-17T03:20:05.058Z,23.16
2018-08-17T03:20:45.574Z,23.07
2018-08-17T03:21:26.097Z,23.25
2018-08-17T03:22:06.624Z,23.13
2018-08-17T03:22:47.131Z,23.09
2018-08-17T03:23:27.654Z,23.1
2018-08-17T03:24:08.179Z,23.13
2018-08-17T03:24:48.702Z,23.16
2018-08-17T03:25:29.239Z,23.15
2018-08-17T03:26:09.749Z,22.97
2018-08-17T03:26:50.261Z,23.04
2018-08-17T03:27:30.772Z,23.04
2018-08-17T03:28:11.293Z,22.97
2018-08-17T03:28:51.814Z,23.01
2018-08-17T03:29:32.328Z,22.97
2018-08-17T03:30:12.868Z,22.86
2018-08-17T03:30:53.331Z,22.97
2018-08-17T03:31:33.834Z,22.9
2018-08-17T03:32:14.352Z,22.83
2018-08-17T03:32:54.861Z,23.01
2018-08-17T03:33:35.376Z,23.01
2018-08-17T03:34:15.889Z,23.04
2018-08-17T03:34:56.401Z,22.86
2018-08-17T03:35:36.903Z,22.79
2018-08-17T03:36:17.411Z,22.79
2018-08-17T03:36:57.945Z,22.94
2018-08-17T03:37:38.463Z,22.97
2018-08-17T03:38:18.988Z,22.9
2018-08-17T03:38:59.517Z,22.91
2018-08-17T03:39:40.026Z,23.01
2018-08-17T03:40:20.551Z,23
2018-08-17T03:41:01.057Z,22.97
2018-08-17T03:41:41.566Z,23.12
2018-08-17T03:42:22.088Z,22.95
2018-08-17T03:43:02.585Z,23.04
2018-08-17T03:43:43.101Z,22.83
2018-08-17T03:44:23.653Z,22.77
2018-08-17T03:45:04.180Z,22.86
2018-08-17T03:45:44.698Z,23.02
2018-08-17T03:46:25.205Z,22.95
2018-08-17T03:47:05.715Z,23.01
2018-08-17T03:47:46.236Z,23
2018-08-17T03:48:26.756Z,22.98
2018-08-17T03:49:07.277Z,23.15
2018-08-17T03:49:47.776Z,23.17
2018-08-17T03:50:28.311Z,23.01
2018-08-17T03:51:08.843Z,22.98
2018-08-17T03:51:49.357Z,22.94
2018-08-17T03:52:29.873Z,22.92
2018-08-17T03:53:10.376Z,22.86
2018-08-17T03:53:50.906Z,22.92
2018-08-17T03:54:31.428Z,22.83
2018-08-17T03:55:11.949Z,22.77
2018-08-17T03:55:52.457Z,22.77
2018-08-17T03:56:32.985Z,22.8
2018-08-17T03:57:13.501Z,22.73
2018-08-17T03:57:54.046Z,22.77
2018-08-17T03:58:34.513Z,22.8
2018-08-17T03:59:15.033Z,22.83
2018-08-17T03:59:55.570Z,22.85
2018-08-17T04:00:36.084Z,22.82
2018-08-17T04:01:16.600Z,22.77
2018-08-17T04:01:57.124Z,22.8
2018-08-17T04:02:37.657Z,22.68
2018-08-17T04:03:18.175Z,22.65
2018-08-17T04:03:58.686Z,22.58
2018-08-17T04:04:39.205Z,22.57
2018-08-17T04:05:19.747Z,22.62
2018-08-17T04:06:00.247Z,22.65
2018-08-17T04:06:40.782Z,22.62
2018-08-17T04:07:21.300Z,22.7
2018-08-17T04:08:01.843Z,22.64
2018-08-17T04:08:42.352Z,22.68
2018-08-17T04:09:22.876Z,22.68
2018-08-17T04:10:03.385Z,22.65
2018-08-17T04:10:43.914Z,22.68
2018-08-17T04:11:24.436Z,22.82
2018-08-17T04:12:04.943Z,22.7
2018-08-17T04:12:45.473Z,22.68
2018-08-17T04:13:25.993Z,22.68
2018-08-17T04:14:06.504Z,22.72
2018-08-17T04:14:47.058Z,22.65
2018-08-17T04:15:27.595Z,22.65
2018-08-17T04:16:08.073Z,22.64
2018-08-17T04:16:48.597Z,22.52
2018-08-17T04:17:29.133Z,22.62
2018-08-17T04:18:09.644Z,22.55
2018-08-17T04:18:50.177Z,22.58
2018-08-17T04:19:30.700Z,22.54
2018-08-17T04:20:11.208Z,22.6
2018-08-17T04:20:51.727Z,22.67
2018-08-17T04:21:32.252Z,22.64
2018-08-17T04:22:12.777Z,22.68
2018-08-17T04:22:53.283Z,22.68
2018-08-17T04:23:33.792Z,22.61
2018-08-17T04:24:14.335Z,22.54
2018-08-17T04:24:54.848Z,22.58
2018-08-17T04:25:35.355Z,22.61
2018-08-17T04:26:15.865Z,22.64
2018-08-17T04:26:56.382Z,22.57
2018-08-17T04:27:36.966Z,22.58
2018-08-17T04:28:17.487Z,22.64
2018-08-17T04:28:58.013Z,22.72
2018-08-17T04:29:38.535Z,22.7
2018-08-17T04:30:19.051Z,22.65
2018-08-17T04:30:59.582Z,22.64
2018-08-17T04:31:40.093Z,22.65
2018-08-17T04:32:20.608Z,22.67
2018-08-17T04:33:01.132Z,22.65
2018-08-17T04:33:41.644Z,22.61
2018-08-17T04:34:22.183Z,22.6
2018-08-17T04:35:02.722Z,22.6
2018-08-17T04:35:43.236Z,22.64
2018-08-17T04:36:23.749Z,22.6
2018-08-17T04:37:04.268Z,22.65
2018-08-17T04:37:44.784Z,22.72
2018-08-17T04:38:25.283Z,22.67
2018-08-17T04:39:05.802Z,22.75
2018-08-17T04:39:46.324Z,22.7
2018-08-17T04:40:26.843Z,22.7
2018-08-17T04:41:07.375Z,22.77
2018-08-17T04:41:47.889Z,22.8
2018-08-17T04:42:28.525Z,22.91
2018-08-17T04:43:08.989Z,22.92
2018-08-17T04:43:49.520Z,23
2018-08-17T04:44:29.984Z,23.02
2018-08-17T04:45:10.512Z,22.97
2018-08-17T04:45:51.026Z,22.97
2018-08-17T04:46:31.535Z,22.91
2018-08-17T04:47:12.102Z,22.97
2018-08-17T04:47:52.555Z,22.9
2018-08-17T04:48:33.069Z,22.88
2018-08-17T04:49:13.600Z,22.77
2018-08-17T04:49:54.096Z,22.76
2018-08-17T04:50:34.611Z,22.76
2018-08-17T04:51:15.140Z,22.68
2018-08-17T04:51:55.658Z,22.68
2018-08-17T04:52:36.174Z,22.68
2018-08-17T04:53:16.706Z,22.75
2018-08-17T04:53:57.239Z,22.79
2018-08-17T04:54:37.728Z,22.95
2018-08-17T04:55:18.241Z,22.94
2018-08-17T04:55:58.754Z,22.94
2018-08-17T04:56:39.255Z,22.98
2018-08-17T04:57:19.814Z,22.98
2018-08-17T04:58:00.332Z,22.86
2018-08-17T04:58:41.138Z,22.88
2018-08-17T04:59:21.658Z,22.85
2018-08-17T05:00:02.125Z,22.79
2018-08-17T05:00:42.635Z,22.77
2018-08-17T05:01:23.175Z,22.83
2018-08-17T05:02:03.723Z,22.88
2018-08-17T05:02:44.209Z,22.85
2018-08-17T05:03:24.821Z,22.9
2018-08-17T05:04:05.232Z,22.97
2018-08-17T05:04:45.753Z,22.97
2018-08-17T05:05:26.265Z,23.04
2018-08-17T05:06:06.776Z,23.13
2018-08-17T05:06:47.307Z,23.1
2018-08-17T05:07:28.197Z,22.91
2018-08-17T05:08:08.666Z,22.97
2018-08-17T05:08:49.205Z,23.01
2018-08-17T05:09:29.697Z,23.07
2018-08-17T05:10:10.422Z,23.09
2018-08-17T05:10:50.942Z,23.12
2018-08-17T05:11:31.400Z,23.13
2018-08-17T05:12:11.912Z,22.98
2018-08-17T05:12:52.384Z,23
2018-08-17T05:13:32.880Z,22.98
2018-08-17T05:14:13.393Z,23.17
2018-08-17T05:14:53.893Z,23.05
2018-08-17T05:15:34.379Z,23.15
2018-08-17T05:16:14.858Z,23.13
2018-08-17T05:16:55.364Z,23.09
2018-08-17T05:17:35.906Z,23.13
2018-08-17T05:18:16.371Z,23.15
2018-08-17T05:18:56.882Z,23.27
2018-08-17T05:19:37.390Z,23.2
2018-08-17T05:20:17.924Z,23.28
2018-08-17T05:20:58.440Z,23.22
2018-08-17T05:21:39.092Z,23.35
2018-08-17T05:22:19.454Z,23.28
2018-08-17T05:22:59.947Z,23.35
2018-08-17T05:23:40.446Z,23.23
2018-08-17T05:24:20.958Z,23.32
2018-08-17T05:25:01.431Z,23.33
2018-08-17T05:25:41.940Z,23.22
2018-08-17T05:26:22.448Z,23.28
2018-08-17T05:27:03.055Z,23.25
2018-08-17T05:27:43.486Z,23.32
2018-08-17T05:28:23.997Z,23.47
2018-08-17T05:30:37.243Z,23.36
2018-08-17T05:31:18.115Z,23.39
2018-08-17T05:31:58.332Z,23.39
2018-08-17T05:32:39.756Z,23.36
2018-08-17T05:33:19.928Z,23.38
2018-08-17T05:34:00.439Z,23.39
2018-08-17T05:34:40.987Z,23.47
2018-08-17T05:35:21.464Z,23.35
2018-08-17T05:36:02.078Z,23.43
2018-08-17T05:36:42.530Z,23.42
2018-08-17T05:37:23.039Z,23.39
2018-08-17T05:38:03.542Z,23.43
2018-08-17T05:38:44.035Z,23.43
2018-08-17T05:39:24.523Z,23.43
2018-08-17T05:40:05.099Z,23.47
2018-08-17T05:40:45.561Z,23.51
2018-08-17T05:41:26.274Z,23.38
2018-08-17T05:42:06.762Z,23.42
2018-08-17T05:42:47.263Z,23.5
2018-08-17T05:43:27.779Z,23.38
2018-08-17T05:44:08.307Z,23.5
2018-08-17T05:44:48.795Z,23.48
2018-08-17T05:45:29.307Z,23.39
2018-08-17T05:46:10.056Z,23.48
2018-08-17T05:46:50.700Z,23.4
2018-08-17T05:47:31.330Z,23.61
2018-08-17T05:48:11.844Z,23.65
2018-08-17T05:48:52.360Z,23.6
2018-08-17T05:49:32.867Z,23.72
2018-08-17T05:50:13.387Z,23.69
2018-08-17T05:50:53.881Z,23.83
2018-08-17T05:51:34.999Z,23.79
2018-08-17T05:52:15.465Z,23.69
2018-08-17T05:52:55.942Z,23.73
2018-08-17T05:53:36.536Z,23.75
2018-08-17T05:54:17.060Z,23.76
2018-08-17T05:54:57.571Z,23.79
2018-08-17T05:55:38.062Z,23.83
2018-08-17T05:56:18.569Z,23.85
2018-08-17T05:56:59.075Z,23.87
2018-08-17T05:57:39.606Z,23.87
2018-08-17T05:58:20.129Z,23.8
2018-08-17T05:59:00.664Z,23.78
2018-08-17T05:59:41.148Z,23.9
2018-08-17T06:00:21.674Z,23.91
2018-08-17T06:01:02.158Z,23.87
2018-08-17T06:01:42.669Z,23.85
2018-08-17T06:02:23.189Z,23.8
2018-08-17T06:03:03.634Z,23.69
2018-08-17T06:03:44.157Z,23.69
2018-08-17T06:04:24.637Z,23.72
2018-08-17T06:05:05.121Z,23.58
2018-08-17T06:05:45.631Z,23.63
2018-08-17T06:06:26.125Z,23.7
2018-08-17T06:07:06.663Z,23.63
2018-08-17T06:07:47.172Z,23.58
2018-08-17T06:08:27.692Z,23.73
2018-08-17T06:09:08.215Z,23.73
2018-08-17T06:09:48.744Z,23.7
2018-08-17T06:10:29.276Z,23.78
2018-08-17T06:11:09.938Z,23.83
2018-08-17T06:11:50.310Z,23.75
2018-08-17T06:12:30.835Z,23.79
2018-08-17T06:13:11.338Z,23.85
2018-08-17T06:13:51.844Z,23.83
2018-08-17T06:14:32.376Z,23.85
2018-08-17T06:15:12.879Z,23.9
2018-08-17T06:15:53.384Z,23.85
2018-08-17T06:16:33.900Z,23.91
2018-08-17T06:17:14.431Z,23.85
2018-08-17T06:17:54.942Z,23.84
2018-08-17T06:18:35.486Z,23.85
2018-08-17T06:19:15.961Z,23.84
2018-08-17T06:19:56.423Z,23.95
2018-08-17T06:20:36.930Z,24.08
2018-08-17T06:21:17.420Z,24.05
2018-08-17T06:21:57.986Z,24.03
2018-08-17T06:22:38.466Z,24.03
2018-08-17T06:23:18.984Z,23.98
2018-08-17T06:23:59.455Z,24.1
2018-08-17T06:24:39.991Z,24.09
2018-08-17T06:25:20.488Z,24.13
2018-08-17T06:26:00.966Z,24.08
2018-08-17T06:26:41.431Z,24.08
2018-08-17T06:27:21.930Z,24.1
2018-08-17T06:28:02.445Z,24.15
2018-08-17T06:28:42.952Z,24.05
2018-08-17T06:29:23.417Z,24.05
2018-08-17T06:30:03.926Z,24.1
2018-08-17T06:30:44.425Z,24.16
2018-08-17T06:31:24.910Z,24.16
2018-08-17T06:32:05.386Z,24.1
2018-08-17T06:32:45.865Z,24.15
2018-08-17T06:33:26.360Z,24.2
2018-08-17T06:34:06.936Z,24.18
2018-08-17T06:34:47.406Z,24.13
2018-08-17T06:35:27.895Z,24.18
2018-08-17T06:36:08.488Z,24.21
2018-08-17T06:36:48.869Z,24.24
2018-08-17T06:37:29.365Z,24.28
2018-08-17T06:38:09.871Z,24.31
2018-08-17T06:38:50.520Z,24.32
2018-08-17T06:39:30.975Z,24.35
2018-08-17T06:40:11.446Z,24.31
2018-08-17T06:40:52.035Z,24.47
2018-08-17T06:41:32.443Z,24.47
2018-08-17T06:42:12.975Z,24.5
2018-08-17T06:42:53.423Z,24.58
2018-08-17T06:43:33.931Z,24.55
2018-08-17T06:44:14.382Z,24.71
2018-08-17T06:44:54.873Z,24.78
2018-08-17T06:45:35.630Z,24.65
2018-08-17T06:46:16.130Z,24.83
2018-08-17T06:46:56.616Z,24.9
2018-08-17T06:47:37.078Z,24.88
2018-08-17T06:48:17.683Z,24.91
2018-08-17T06:48:58.170Z,25.02
2018-08-17T06:49:38.832Z,24.99
2018-08-17T06:50:19.320Z,24.93
2018-08-17T06:51:00.073Z,24.9
2018-08-17T06:51:40.350Z,25
2018-08-17T06:52:20.850Z,25.02
2018-08-17T06:53:01.377Z,25.09
2018-08-17T06:53:41.815Z,25.27
2018-08-17T06:54:22.382Z,25.33
2018-08-17T06:55:02.893Z,25.39
2018-08-17T06:55:43.396Z,25.57
2018-08-17T06:56:23.837Z,25.6
2018-08-17T06:57:04.373Z,25.64
2018-08-17T06:57:44.821Z,25.57
2018-08-17T06:58:25.313Z,25.51
2018-08-17T06:59:05.825Z,25.51
2018-08-17T06:59:46.284Z,25.65
2018-08-17T07:00:26.808Z,25.69
2018-08-17T07:01:07.318Z,25.65
2018-08-17T07:01:47.917Z,25.8
2018-08-17T07:02:28.464Z,25.85
2018-08-17T07:03:08.908Z,25.79
2018-08-17T07:03:49.424Z,25.91
2018-08-17T07:04:29.977Z,26.02
2018-08-17T07:05:10.379Z,26.06
2018-08-17T07:05:50.904Z,26.21
2018-08-17T07:06:31.369Z,26.28
2018-08-17T07:07:11.860Z,26.3
2018-08-17T07:07:52.408Z,26.26
2018-08-17T07:08:32.981Z,26.3
2018-08-17T07:09:13.750Z,26.26
2018-08-17T07:09:53.920Z,26.33
2018-08-17T07:10:34.474Z,26.39
2018-08-17T07:11:15.052Z,26.43
2018-08-17T07:11:55.583Z,26.44
2018-08-17T07:12:36.156Z,26.35
2018-08-17T07:13:16.655Z,26.43
2018-08-17T07:13:57.129Z,26.51
2018-08-17T07:14:37.653Z,26.57
2018-08-17T07:15:18.164Z,26.57
2018-08-17T07:15:58.643Z,26.57
2018-08-17T07:16:39.206Z,26.63
2018-08-17T07:17:19.634Z,26.63
2018-08-17T07:18:00.123Z,26.72
2018-08-17T07:18:40.673Z,26.66
2018-08-17T07:19:21.195Z,26.69
2018-08-17T07:20:01.717Z,26.73
2018-08-17T07:20:42.230Z,26.7
2018-08-17T07:21:22.733Z,26.69
2018-08-17T07:22:03.257Z,26.85
2018-08-17T07:22:43.768Z,26.84
2018-08-17T07:23:24.251Z,26.87
2018-08-17T07:24:04.760Z,26.91
2018-08-17T07:24:45.280Z,26.8
2018-08-17T07:25:25.756Z,26.92
2018-08-17T07:26:06.255Z,26.82
2018-08-17T07:26:46.765Z,26.91
2018-08-17T07:27:27.274Z,26.92
2018-08-17T07:28:07.932Z,27.02
2018-08-17T07:28:48.284Z,27.02
2018-08-17T07:29:28.803Z,27.02
2018-08-17T07:30:09.279Z,27.07
2018-08-17T07:30:49.799Z,27.13
2018-08-17T07:31:30.317Z,27.1
2018-08-17T07:32:10.887Z,27.14
2018-08-17T07:32:51.355Z,27.17
2018-08-17T07:33:31.805Z,27.25
2018-08-17T07:34:12.310Z,27.34
2018-08-17T07:34:52.803Z,27.32
2018-08-17T07:35:33.370Z,27.39
2018-08-17T07:36:13.798Z,27.4
2018-08-17T07:36:54.281Z,27.37
2018-08-17T07:37:34.765Z,27.4
2018-08-17T07:38:15.266Z,27.43
2018-08-17T07:38:55.763Z,27.43
2018-08-17T07:39:36.332Z,27.51
2018-08-17T07:40:16.816Z,27.55
2018-08-17T07:40:57.318Z,27.51
2018-08-17T07:41:37.822Z,27.55
2018-08-17T07:42:18.268Z,27.57
2018-08-17T07:42:58.741Z,27.54
2018-08-17T07:43:39.246Z,27.51
2018-08-17T07:44:19.718Z,27.55
2018-08-17T07:45:00.284Z,27.57
2018-08-17T07:45:40.721Z,27.57
2018-08-17T07:46:21.224Z,27.66
2018-08-17T07:47:01.711Z,27.6
2018-08-17T07:47:42.186Z,27.5
2018-08-17T07:48:22.816Z,27.54
2018-08-17T07:49:03.257Z,27.6
2018-08-17T07:49:43.719Z,27.54
2018-08-17T07:50:24.237Z,27.63
2018-08-17T07:51:04.929Z,27.6
2018-08-17T07:51:45.747Z,27.65
2018-08-17T07:52:26.206Z,27.7
2018-08-17T07:53:06.743Z,27.59
2018-08-17T07:53:47.348Z,27.7
2018-08-17T07:54:27.778Z,27.7
2018-08-17T07:55:08.288Z,27.75
2018-08-17T07:57:06.447Z,27.7
2018-08-17T07:57:46.999Z,27.67
2018-08-17T07:58:27.541Z,27.7
2018-08-17T07:59:08.362Z,27.81
2018-08-17T07:59:49.078Z,27.79
2018-08-17T08:00:29.652Z,27.72
2018-08-17T08:01:10.159Z,27.75
2018-08-17T08:01:50.697Z,27.85
2018-08-17T08:02:31.227Z,27.79
2018-08-17T08:03:11.783Z,27.9
2018-08-17T08:03:52.286Z,27.81
2018-08-17T08:04:32.799Z,27.74
2018-08-17T08:05:13.250Z,27.69
2018-08-17T08:05:53.771Z,27.72
2018-08-17T08:06:34.372Z,27.62
2018-08-17T08:07:14.878Z,27.74
2018-08-17T08:07:55.391Z,27.75
2018-08-17T08:08:35.929Z,27.82
2018-08-17T08:09:16.353Z,27.72
2018-08-17T08:09:56.912Z,27.57
2018-08-17T08:10:37.518Z,27.66
2018-08-17T08:11:18.048Z,27.66
2018-08-17T08:11:58.552Z,27.65
2018-08-17T08:12:39.175Z,27.65
2018-08-17T08:13:19.694Z,27.6
2018-08-17T08:14:00.338Z,27.7
2018-08-17T08:14:40.860Z,27.67
2018-08-17T08:15:21.304Z,27.69
2018-08-17T08:16:01.766Z,27.74
2018-08-17T08:16:42.266Z,27.72
2018-08-17T08:17:22.832Z,27.75
2018-08-17T08:18:03.356Z,27.67
2018-08-17T08:18:43.833Z,27.62
2018-08-17T08:19:24.400Z,27.67
2018-08-17T08:20:05.787Z,27.74
2018-08-17T08:20:46.269Z,27.75
2018-08-17T08:21:26.821Z,27.77
2018-08-17T08:22:07.338Z,27.65
2018-08-17T08:22:47.837Z,27.66
2018-08-17T08:23:28.322Z,27.6
2018-08-17T08:24:08.815Z,27.59
2018-08-17T08:24:49.330Z,27.51
2018-08-17T08:25:29.831Z,27.4
2018-08-17T08:26:10.393Z,27.44
2018-08-17T08:26:50.830Z,27.4
2018-08-17T08:27:31.330Z,27.39
2018-08-17T08:28:11.847Z,27.43
2018-08-17T08:28:52.337Z,27.43
2018-08-17T08:29:32.842Z,27.41
2018-08-17T08:30:13.344Z,27.44
2018-08-17T08:30:53.841Z,27.51
2018-08-17T08:31:34.425Z,27.49
2018-08-17T08:32:14.840Z,27.5
2018-08-17T08:32:55.313Z,27.54
2018-08-17T08:33:35.856Z,27.55
2018-08-17T08:34:16.331Z,27.62
2018-08-17T08:34:56.812Z,27.62
2018-08-17T08:35:37.301Z,27.65
2018-08-17T08:36:17.808Z,27.55
2018-08-17T08:36:58.300Z,27.66
2018-08-17T08:37:38.890Z,27.69
2018-08-17T08:38:19.358Z,27.69
2018-08-17T08:38:59.845Z,27.7
2018-08-17T08:39:40.400Z,27.81
2018-08-17T08:40:20.867Z,27.72
2018-08-17T08:41:01.368Z,27.74
2018-08-17T08:41:41.865Z,27.75
2018-08-17T08:42:22.358Z,27.75
2018-08-17T08:43:02.800Z,27.82
2018-08-17T08:43:43.313Z,27.72
2018-08-17T08:44:23.843Z,27.78
2018-08-17T08:45:04.313Z,27.85
2018-08-17T08:45:44.851Z,27.79
2018-08-17T08:46:25.317Z,27.85
2018-08-17T08:47:06.072Z,27.82
2018-08-17T08:47:46.451Z,27.82
2018-08-17T08:48:27.154Z,27.75
2018-08-17T08:49:07.901Z,27.81
2018-08-17T08:49:48.447Z,27.78